Terminal Aerodrome Forecast
Issued by NWS

Home | Current Version | Previous Version | Text Only | Print | Product List | Glossary On
Versions: 1 2 3 4 5 6 7 8 9 10 11 12 13 14 15 16 17 18 19 20 21 22 23 24 25 26 27 28 29 30 31 32
000
FTUS43 KDVN 291258 AAA
TAFCID
TAF AMD
KCID 291258Z 2913/3012 28011KT P6SM BKN014
     FM291340 28011KT P6SM SCT014
     FM291600 27012KT P6SM SCT040
     FM300000 24006KT P6SM FEW250=

USA.gov is the U.S. government's official web portal to all federal, state and local government web resources and services.